createdAt,value
2017-05-24T00:00:17.464Z,0
2017-05-24T00:01:18.231Z,0
2017-05-24T00:02:18.910Z,0
2017-05-24T00:03:19.580Z,0
2017-05-24T00:04:20.247Z,0
2017-05-24T00:05:20.915Z,0
2017-05-24T00:06:21.589Z,0
2017-05-24T00:07:22.278Z,0
2017-05-24T00:08:22.954Z,0
2017-05-24T00:09:23.624Z,0
2017-05-24T00:10:24.312Z,0
2017-05-24T00:11:25.002Z,0
2017-05-24T00:12:25.678Z,0
2017-05-24T00:13:26.359Z,0
2017-05-24T00:14:27.028Z,0
2017-05-24T00:15:27.721Z,0
2017-05-24T00:16:28.392Z,0
2017-05-24T00:17:29.109Z,0
2017-05-24T00:18:29.867Z,0
2017-05-24T00:19:30.539Z,0
2017-05-24T00:20:31.213Z,0
2017-05-24T00:21:31.893Z,0
2017-05-24T00:22:32.612Z,0
2017-05-24T00:23:33.286Z,0
2017-05-24T00:24:33.970Z,0
2017-05-24T00:25:34.637Z,0
2017-05-24T00:26:35.311Z,0
2017-05-24T00:27:35.981Z,0
2017-05-24T00:28:36.658Z,0
2017-05-24T00:29:37.330Z,0
2017-05-24T00:30:38.008Z,0
2017-05-24T00:31:38.722Z,0
2017-05-24T00:32:39.403Z,0
2017-05-24T00:33:40.076Z,0
2017-05-24T00:34:40.789Z,0
2017-05-24T00:35:41.455Z,0
2017-05-24T00:36:42.134Z,0
2017-05-24T00:37:42.814Z,0
2017-05-24T00:38:43.485Z,0
2017-05-24T00:39:44.159Z,0
2017-05-24T00:40:44.829Z,0
2017-05-24T00:41:45.504Z,0
2017-05-24T00:42:46.177Z,0
2017-05-24T00:43:46.867Z,0
2017-05-24T00:44:47.540Z,0
2017-05-24T00:45:48.223Z,0
2017-05-24T00:46:48.894Z,0
2017-05-24T00:47:49.584Z,0
2017-05-24T00:48:50.257Z,0
2017-05-24T00:49:50.933Z,0
2017-05-24T00:50:51.608Z,0
2017-05-24T00:51:52.291Z,0
2017-05-24T00:52:52.970Z,0
2017-05-24T00:53:53.642Z,0
2017-05-24T00:54:54.315Z,0
2017-05-24T00:55:54.995Z,0
2017-05-24T00:56:55.730Z,0
2017-05-24T00:57:56.394Z,0
2017-05-24T00:58:57.074Z,0
2017-05-24T00:59:57.742Z,0
2017-05-24T01:00:58.425Z,0
2017-05-24T01:01:59.102Z,0
2017-05-24T01:02:59.789Z,0
2017-05-24T01:04:00.459Z,0
2017-05-24T01:05:01.128Z,0
2017-05-24T01:06:01.799Z,0
2017-05-24T01:07:02.484Z,0
2017-05-24T01:08:03.151Z,0
2017-05-24T01:09:03.824Z,0
2017-05-24T01:10:04.498Z,0
2017-05-24T01:11:05.198Z,0
2017-05-24T01:12:05.880Z,0
2017-05-24T01:13:06.570Z,0
2017-05-24T01:14:07.239Z,0
2017-05-24T01:15:07.912Z,0
2017-05-24T01:16:08.573Z,0
2017-05-24T01:17:09.262Z,0
2017-05-24T01:18:09.929Z,0
2017-05-24T01:19:10.639Z,0
2017-05-24T01:20:11.316Z,0
2017-05-24T01:21:12.001Z,0
2017-05-24T01:22:12.708Z,0
2017-05-24T01:23:13.381Z,0
2017-05-24T01:24:14.057Z,0
2017-05-24T01:25:14.733Z,0
2017-05-24T01:26:15.404Z,0
2017-05-24T01:27:16.080Z,0
2017-05-24T01:28:16.754Z,0
2017-05-24T01:29:17.429Z,0
2017-05-24T01:30:18.104Z,0
2017-05-24T01:31:18.767Z,0
2017-05-24T01:32:19.439Z,0
2017-05-24T01:33:20.111Z,0
2017-05-24T01:34:20.788Z,0
2017-05-24T01:35:21.462Z,0
2017-05-24T01:36:22.140Z,0
2017-05-24T01:37:22.808Z,0
2017-05-24T01:38:23.477Z,0
2017-05-24T01:39:24.157Z,0
2017-05-24T01:40:24.828Z,0
2017-05-24T01:41:25.501Z,0
2017-05-24T01:42:26.167Z,0
2017-05-24T01:43:26.831Z,0
2017-05-24T01:44:27.506Z,0
2017-05-24T01:45:28.184Z,0
2017-05-24T01:46:28.852Z,0
2017-05-24T01:47:29.529Z,0
2017-05-24T01:48:30.214Z,0
2017-05-24T01:49:30.887Z,0
2017-05-24T01:50:31.569Z,0
2017-05-24T01:51:32.232Z,0
2017-05-24T01:52:32.907Z,0
2017-05-24T01:53:33.584Z,0
2017-05-24T01:54:34.256Z,0
2017-05-24T01:55:34.949Z,0
2017-05-24T01:56:35.615Z,0
2017-05-24T01:57:36.299Z,0
2017-05-24T01:58:36.974Z,0
2017-05-24T01:59:37.653Z,0
2017-05-24T02:00:38.446Z,0
2017-05-24T02:01:39.127Z,0
2017-05-24T02:02:39.800Z,0
2017-05-24T02:03:40.491Z,0
2017-05-24T02:04:41.166Z,0
2017-05-24T02:05:41.842Z,0
2017-05-24T02:06:42.523Z,0
2017-05-24T02:07:43.210Z,0
2017-05-24T02:08:43.971Z,0
2017-05-24T02:09:44.648Z,0
2017-05-24T02:10:45.331Z,0
2017-05-24T02:11:46.007Z,0
2017-05-24T02:12:46.687Z,0
2017-05-24T02:13:47.365Z,0
2017-05-24T02:14:48.056Z,0
2017-05-24T02:15:48.749Z,0
2017-05-24T02:16:49.412Z,0
2017-05-24T02:17:50.087Z,0
2017-05-24T02:18:50.763Z,0
2017-05-24T02:19:51.429Z,0
2017-05-24T02:20:52.115Z,0
2017-05-24T02:21:52.800Z,0
2017-05-24T02:22:53.463Z,0
2017-05-24T02:23:54.141Z,0
2017-05-24T02:24:54.819Z,0
2017-05-24T02:25:55.508Z,0
2017-05-24T02:26:56.179Z,4
2017-05-24T02:27:56.863Z,4
2017-05-24T02:28:57.533Z,4
2017-05-24T02:29:58.209Z,4
2017-05-24T02:30:58.890Z,0
2017-05-24T02:31:59.565Z,4
2017-05-24T02:33:00.245Z,4
2017-05-24T02:34:00.990Z,4
2017-05-24T02:35:01.664Z,4
2017-05-24T02:36:02.340Z,4
2017-05-24T02:37:03.018Z,4
2017-05-24T02:38:03.704Z,4
2017-05-24T02:39:04.382Z,4
2017-05-24T02:40:05.052Z,4
2017-05-24T02:41:05.734Z,8
2017-05-24T02:42:06.425Z,8
2017-05-24T02:43:07.102Z,8
2017-05-24T02:44:07.770Z,12
2017-05-24T02:45:08.452Z,16
2017-05-24T02:46:09.121Z,20
2017-05-24T02:47:09.794Z,20
2017-05-24T02:48:10.479Z,20
2017-05-24T02:49:11.156Z,24
2017-05-24T02:50:11.837Z,32
2017-05-24T02:51:12.521Z,32
2017-05-24T02:52:13.200Z,40
2017-05-24T02:53:13.879Z,40
2017-05-24T02:54:14.544Z,48
2017-05-24T02:55:15.214Z,48
2017-05-24T02:56:15.893Z,56
2017-05-24T02:57:16.562Z,60
2017-05-24T02:58:17.243Z,64
2017-05-24T02:59:17.912Z,68
2017-05-24T03:00:18.594Z,76
2017-05-24T03:01:19.269Z,88
2017-05-24T03:02:19.952Z,100
2017-05-24T03:03:20.639Z,104
2017-05-24T03:04:21.332Z,112
2017-05-24T03:05:22.005Z,124
2017-05-24T03:06:22.672Z,132
2017-05-24T03:07:23.348Z,144
2017-05-24T03:08:24.028Z,152
2017-05-24T03:09:24.708Z,156
2017-05-24T03:10:25.467Z,168
2017-05-24T03:11:26.095Z,176
2017-05-24T03:12:26.763Z,176
2017-05-24T03:13:27.455Z,188
2017-05-24T03:14:28.125Z,192
2017-05-24T03:15:28.799Z,204
2017-05-24T03:16:29.482Z,220
2017-05-24T03:17:30.152Z,244
2017-05-24T03:18:30.828Z,244
2017-05-24T03:19:31.497Z,260
2017-05-24T03:20:32.167Z,252
2017-05-24T03:21:32.841Z,228
2017-05-24T03:22:33.513Z,224
2017-05-24T03:23:34.179Z,256
2017-05-24T03:24:34.851Z,280
2017-05-24T03:25:35.529Z,320
2017-05-24T03:26:36.206Z,328
2017-05-24T03:27:36.901Z,308
2017-05-24T03:28:37.581Z,332
2017-05-24T03:29:38.257Z,368
2017-05-24T03:30:38.933Z,388
2017-05-24T03:31:39.615Z,432
2017-05-24T03:32:40.331Z,456
2017-05-24T03:33:41.051Z,496
2017-05-24T03:34:41.702Z,468
2017-05-24T03:35:42.390Z,452
2017-05-24T03:36:43.060Z,472
2017-05-24T03:37:43.742Z,476
2017-05-24T03:38:44.414Z,500
2017-05-24T03:39:45.091Z,536
2017-05-24T03:40:45.779Z,600
2017-05-24T03:41:46.450Z,664
2017-05-24T03:42:47.132Z,720
2017-05-24T03:43:47.804Z,760
2017-05-24T03:44:48.458Z,732
2017-05-24T03:45:49.135Z,752
2017-05-24T03:46:49.807Z,816
2017-05-24T03:47:50.483Z,872
2017-05-24T03:48:51.151Z,896
2017-05-24T03:49:51.819Z,888
2017-05-24T03:50:52.503Z,932
2017-05-24T03:51:53.163Z,1020
2017-05-24T03:52:53.837Z,1056
2017-05-24T03:53:54.536Z,1044
2017-05-24T03:54:55.222Z,1052
2017-05-24T03:55:55.897Z,1080
2017-05-24T03:56:56.571Z,1080
2017-05-24T03:57:57.251Z,1044
2017-05-24T03:58:57.926Z,1068
2017-05-24T03:59:58.594Z,1052
2017-05-24T04:00:59.269Z,1000
2017-05-24T04:01:59.940Z,1016
2017-05-24T04:03:00.620Z,1172
2017-05-24T04:04:01.300Z,1364
2017-05-24T04:05:02.064Z,1552
2017-05-24T04:06:02.750Z,1540
2017-05-24T04:07:03.442Z,1464
2017-05-24T04:08:04.120Z,1248
2017-05-24T04:09:04.884Z,1156
2017-05-24T04:10:05.572Z,1216
2017-05-24T04:11:06.243Z,1280
2017-05-24T04:12:06.926Z,1224
2017-05-24T04:13:07.616Z,1332
2017-05-24T04:14:08.277Z,1776
2017-05-24T04:15:08.960Z,2072
2017-05-24T04:16:09.676Z,2192
2017-05-24T04:17:10.338Z,2232
2017-05-24T04:18:11.037Z,2112
2017-05-24T04:19:11.726Z,2104
2017-05-24T04:20:12.423Z,1992
2017-05-24T04:21:13.103Z,1948
2017-05-24T04:22:13.793Z,1764
2017-05-24T04:23:14.478Z,1768
2017-05-24T04:24:15.162Z,1848
2017-05-24T04:25:15.854Z,1832
2017-05-24T04:26:16.541Z,1656
2017-05-24T04:27:17.220Z,1664
2017-05-24T04:28:17.903Z,1916
2017-05-24T04:29:18.594Z,1888
2017-05-24T04:30:19.263Z,1860
2017-05-24T04:31:19.937Z,2376
2017-05-24T04:32:20.621Z,2792
2017-05-24T04:33:21.302Z,2740
2017-05-24T04:34:21.973Z,2872
2017-05-24T04:35:22.657Z,3008
2017-05-24T04:36:23.331Z,2728
2017-05-24T04:37:24.032Z,2264
2017-05-24T04:38:24.697Z,2468
2017-05-24T04:39:25.416Z,2532
2017-05-24T04:40:26.111Z,2688
2017-05-24T04:41:26.792Z,3128
2017-05-24T04:42:27.463Z,3572
2017-05-24T04:43:28.714Z,4096
2017-05-24T04:44:29.417Z,4248
2017-05-24T04:45:30.089Z,4088
2017-05-24T04:46:30.804Z,3272
2017-05-24T04:47:31.491Z,3100
2017-05-24T04:48:32.169Z,3620
2017-05-24T04:49:32.843Z,4364
2017-05-24T04:50:33.519Z,4816
2017-05-24T04:51:34.210Z,4720
2017-05-24T04:52:34.899Z,4740
2017-05-24T04:53:35.607Z,5044
2017-05-24T04:54:36.298Z,5232
2017-05-24T04:55:36.978Z,5092
2017-05-24T04:56:37.647Z,4584
2017-05-24T04:57:38.324Z,4216
2017-05-24T04:58:38.994Z,4052
2017-05-24T04:59:39.680Z,3628
2017-05-24T05:00:40.389Z,3124
2017-05-24T05:01:41.092Z,2992
2017-05-24T05:02:41.811Z,2972
2017-05-24T05:03:42.460Z,2976
2017-05-24T05:04:43.143Z,2964
2017-05-24T05:05:43.854Z,3016
2017-05-24T05:06:44.526Z,3064
2017-05-24T05:07:45.245Z,3052
2017-05-24T05:08:45.925Z,3016
2017-05-24T05:09:46.684Z,3028
2017-05-24T05:10:47.379Z,3064
2017-05-24T05:11:48.059Z,3080
2017-05-24T05:12:48.745Z,3000
2017-05-24T05:13:49.454Z,3216
2017-05-24T05:14:50.161Z,2916
2017-05-24T05:15:50.842Z,3084
2017-05-24T05:16:51.525Z,3448
2017-05-24T05:17:52.212Z,3536
2017-05-24T05:18:52.886Z,3568
2017-05-24T05:19:53.572Z,4100
2017-05-24T05:20:54.253Z,3992
2017-05-24T05:21:54.931Z,3404
2017-05-24T05:22:55.607Z,4140
2017-05-24T05:23:56.282Z,4856
2017-05-24T05:24:56.993Z,4212
2017-05-24T05:25:57.676Z,4132
2017-05-24T05:26:58.350Z,5364
2017-05-24T05:27:59.021Z,5584
2017-05-24T05:28:59.718Z,8596
2017-05-24T05:30:00.458Z,27360
2017-05-24T05:31:01.163Z,19424
2017-05-24T05:32:01.857Z,13000
2017-05-24T05:33:02.529Z,9068
2017-05-24T05:34:03.201Z,4752
2017-05-24T05:35:03.879Z,8744
2017-05-24T05:36:04.549Z,6864
2017-05-24T05:37:05.227Z,9336
2017-05-24T05:38:05.903Z,18080
2017-05-24T05:39:06.601Z,39616
2017-05-24T05:40:07.280Z,10744
2017-05-24T05:41:07.964Z,24672
2017-05-24T05:42:08.655Z,24192
2017-05-24T05:43:09.351Z,15628
2017-05-24T05:44:10.033Z,11856
2017-05-24T05:45:10.718Z,6356
2017-05-24T05:46:11.419Z,10260
2017-05-24T05:47:12.104Z,11736
2017-05-24T05:48:12.793Z,18624
2017-05-24T05:49:13.477Z,27712
2017-05-24T05:50:14.164Z,12968
2017-05-24T05:51:14.830Z,9396
2017-05-24T05:52:15.515Z,9360
2017-05-24T05:53:16.195Z,10688
2017-05-24T05:54:16.889Z,21376
2017-05-24T05:55:17.562Z,19296
2017-05-24T05:56:18.241Z,21856
2017-05-24T05:57:18.916Z,17696
2017-05-24T05:58:19.758Z,9232
2017-05-24T05:59:20.434Z,9044
2017-05-24T06:00:21.148Z,4248
2017-05-24T06:01:21.842Z,24096
2017-05-24T06:02:22.547Z,5296
2017-05-24T06:03:23.242Z,5288
2017-05-24T06:04:23.955Z,5184
2017-05-24T06:05:24.639Z,6892
2017-05-24T06:06:25.352Z,9072
2017-05-24T06:07:26.030Z,6180
2017-05-24T06:08:26.702Z,6064
2017-05-24T06:09:27.384Z,7000
2017-05-24T06:10:28.079Z,9884
2017-05-24T06:11:28.767Z,9256
2017-05-24T06:12:29.448Z,9080
2017-05-24T06:13:30.121Z,11380
2017-05-24T06:14:30.812Z,10492
2017-05-24T06:15:31.499Z,8784
2017-05-24T06:16:32.188Z,9844
2017-05-24T06:17:32.878Z,9096
2017-05-24T06:18:33.567Z,10824
2017-05-24T06:19:34.249Z,10644
2017-05-24T06:20:34.960Z,12136
2017-05-24T06:21:35.643Z,13672
2017-05-24T06:22:36.345Z,6268
2017-05-24T06:23:37.040Z,8380
2017-05-24T06:24:37.712Z,25248
2017-05-24T06:25:38.413Z,41312
2017-05-24T06:26:39.105Z,11568
2017-05-24T06:27:39.796Z,66848
2017-05-24T06:28:40.478Z,64288
2017-05-24T06:29:41.176Z,27168
2017-05-24T06:30:41.851Z,57696
2017-05-24T06:31:42.543Z,10184
2017-05-24T06:32:43.260Z,7712
2017-05-24T06:33:43.961Z,10524
2017-05-24T06:34:44.691Z,12304
2017-05-24T06:35:45.387Z,5844
2017-05-24T06:36:46.091Z,30880
2017-05-24T06:37:46.776Z,11280
2017-05-24T06:38:47.468Z,21568
2017-05-24T06:39:48.145Z,40352
2017-05-24T06:40:48.831Z,13752
2017-05-24T06:41:49.524Z,60224
2017-05-24T06:42:50.502Z,15520
2017-05-24T06:43:51.378Z,69536
2017-05-24T06:44:52.486Z,66560
2017-05-24T06:45:53.257Z,65984
2017-05-24T06:46:53.951Z,20096
2017-05-24T06:47:54.666Z,69472
2017-05-24T06:48:55.366Z,72416
2017-05-24T06:49:56.062Z,74496
2017-05-24T06:50:56.767Z,8736
2017-05-24T06:51:57.508Z,7056
2017-05-24T06:52:58.201Z,62080
2017-05-24T06:53:58.904Z,61984
2017-05-24T06:54:59.614Z,29216
2017-05-24T06:56:00.299Z,12996
2017-05-24T06:57:00.998Z,10940
2017-05-24T06:58:01.895Z,26976
2017-05-24T06:59:02.638Z,15504
2017-05-24T07:00:03.412Z,38304
2017-05-24T07:01:04.239Z,15756
2017-05-24T07:02:04.992Z,13240
2017-05-24T07:03:05.682Z,15356
2017-05-24T07:04:06.402Z,9368
2017-05-24T07:05:07.078Z,73536
2017-05-24T07:06:07.769Z,8948
2017-05-24T07:07:08.457Z,6616
2017-05-24T07:08:09.172Z,80896
2017-05-24T07:09:09.850Z,84864
2017-05-24T07:10:10.568Z,81696
2017-05-24T07:11:11.274Z,79296
2017-05-24T07:12:12.004Z,15484
2017-05-24T07:13:12.719Z,13300
2017-05-24T07:14:13.414Z,77536
2017-05-24T07:15:14.100Z,16800
2017-05-24T07:16:14.810Z,38624
2017-05-24T07:17:15.493Z,12120
2017-05-24T07:18:16.184Z,17632
2017-05-24T07:19:16.940Z,12600
2017-05-24T07:20:17.635Z,12064
2017-05-24T07:21:18.336Z,12544
2017-05-24T07:22:19.029Z,13344
2017-05-24T07:23:19.722Z,79104
2017-05-24T07:24:20.421Z,18752
2017-05-24T07:25:21.106Z,15284
2017-05-24T07:26:21.793Z,14476
2017-05-24T07:27:22.495Z,59232
2017-05-24T07:28:23.220Z,12060
2017-05-24T07:29:23.905Z,8304
2017-05-24T07:30:24.586Z,10388
2017-05-24T07:31:25.285Z,63872
2017-05-24T07:32:25.969Z,13348
2017-05-24T07:33:26.659Z,67776
2017-05-24T07:34:27.352Z,17152
2017-05-24T07:35:28.052Z,90336
2017-05-24T07:36:28.775Z,84832
2017-05-24T07:37:29.503Z,81440
2017-05-24T07:38:30.196Z,82144
2017-05-24T07:39:30.905Z,82368
2017-05-24T07:40:31.602Z,81664
2017-05-24T07:41:32.308Z,79264
2017-05-24T07:42:33.043Z,78848
2017-05-24T07:43:33.758Z,79456
2017-05-24T07:44:34.452Z,84544
2017-05-24T07:45:35.166Z,90624
2017-05-24T07:46:35.916Z,86688
2017-05-24T07:47:36.693Z,71904
2017-05-24T07:48:37.418Z,25344
2017-05-24T07:49:38.455Z,90880
2017-05-24T07:50:39.185Z,95168
2017-05-24T07:51:39.957Z,29632
2017-05-24T07:52:40.686Z,20448
2017-05-24T07:53:41.607Z,10996
2017-05-24T07:54:42.351Z,11556
2017-05-24T07:55:43.108Z,13392
2017-05-24T07:56:43.818Z,9316
2017-05-24T07:57:44.598Z,7988
2017-05-24T07:58:45.296Z,7760
2017-05-24T07:59:46.007Z,7128
2017-05-24T08:00:46.769Z,7744
2017-05-24T08:01:47.554Z,7096
2017-05-24T08:02:48.310Z,6976
2017-05-24T08:03:49.009Z,25280
2017-05-24T08:04:49.751Z,83616
2017-05-24T08:05:50.515Z,89088
2017-05-24T08:06:51.302Z,93760
2017-05-24T08:07:52.138Z,97120
2017-05-24T08:08:52.909Z,94784
2017-05-24T08:09:53.791Z,20608
2017-05-24T08:10:54.642Z,23136
2017-05-24T08:11:55.463Z,15340
2017-05-24T08:12:56.279Z,14648
2017-05-24T08:13:56.951Z,13504
2017-05-24T08:14:57.669Z,12632
2017-05-24T08:15:58.430Z,8736
2017-05-24T08:16:59.298Z,8600
2017-05-24T08:18:00.155Z,93696
2017-05-24T08:19:00.912Z,90976
2017-05-24T08:20:01.635Z,91296
2017-05-24T08:21:02.378Z,89728
2017-05-24T08:22:03.105Z,30976
2017-05-24T08:23:03.837Z,26752
2017-05-24T08:24:04.602Z,23808
2017-05-24T08:25:05.374Z,84928
2017-05-24T08:26:06.136Z,18016
2017-05-24T08:27:07.073Z,57632
2017-05-24T08:28:07.942Z,12668
2017-05-24T08:29:08.637Z,97760
2017-05-24T08:30:09.364Z,70752
2017-05-24T08:31:10.059Z,12872
2017-05-24T08:32:10.753Z,83488
2017-05-24T08:33:11.461Z,96064
2017-05-24T08:34:12.151Z,17664
2017-05-24T08:35:12.844Z,57216
2017-05-24T08:36:13.535Z,20256
2017-05-24T08:37:14.258Z,15340
2017-05-24T08:38:14.962Z,70080
2017-05-24T08:39:15.655Z,12776
2017-05-24T08:40:16.357Z,10336
2017-05-24T08:41:17.055Z,10568
2017-05-24T08:42:17.766Z,11312
2017-05-24T08:43:18.482Z,12580
2017-05-24T08:44:19.182Z,12664
2017-05-24T08:45:19.906Z,10688
2017-05-24T08:46:20.626Z,8936
2017-05-24T08:47:21.313Z,9460
2017-05-24T08:48:21.989Z,11992
2017-05-24T08:49:22.672Z,15588
2017-05-24T08:50:23.354Z,12276
2017-05-24T08:51:24.092Z,10784
2017-05-24T08:52:24.813Z,10948
2017-05-24T08:53:25.541Z,9884
2017-05-24T08:54:26.186Z,8612
2017-05-24T08:55:26.882Z,7804
2017-05-24T08:56:27.579Z,9292
2017-05-24T08:57:28.279Z,95232
2017-05-24T08:58:28.986Z,87264
2017-05-24T08:59:29.649Z,17120
2017-05-24T09:00:30.336Z,22336
2017-05-24T09:01:31.022Z,20416
2017-05-24T09:02:31.715Z,12556
2017-05-24T09:03:32.416Z,7644
2017-05-24T09:04:33.091Z,7676
2017-05-24T09:05:33.794Z,10616
2017-05-24T09:06:34.487Z,10684
2017-05-24T09:07:35.199Z,9440
2017-05-24T09:08:35.886Z,9832
2017-05-24T09:09:36.577Z,11788
2017-05-24T09:10:37.274Z,11464
2017-05-24T09:11:37.961Z,8836
2017-05-24T09:12:38.657Z,10132
2017-05-24T09:13:39.340Z,112832
2017-05-24T09:14:40.040Z,38240
2017-05-24T09:15:40.732Z,55296
2017-05-24T09:16:41.421Z,50272
2017-05-24T09:17:42.108Z,74784
2017-05-24T09:18:42.795Z,9676
2017-05-24T09:19:43.492Z,7864
2017-05-24T09:20:44.195Z,7448
2017-05-24T09:21:44.885Z,8132
2017-05-24T09:22:45.589Z,8372
2017-05-24T09:23:46.264Z,7256
2017-05-24T09:24:46.984Z,9324
2017-05-24T09:25:47.666Z,19968
2017-05-24T09:26:48.387Z,10668
2017-05-24T09:27:49.100Z,93088
2017-05-24T09:28:49.777Z,98880
2017-05-24T09:29:50.469Z,99872
2017-05-24T09:30:51.168Z,50368
2017-05-24T09:31:51.896Z,28288
2017-05-24T09:32:52.597Z,17056
2017-05-24T09:33:53.299Z,101120
2017-05-24T09:34:54.037Z,102752
2017-05-24T09:35:54.733Z,22464
2017-05-24T09:36:55.439Z,13368
2017-05-24T09:37:56.173Z,17792
2017-05-24T09:38:56.888Z,52096
2017-05-24T09:39:57.597Z,11200
2017-05-24T09:40:58.293Z,7208
2017-05-24T09:41:58.997Z,7588
2017-05-24T09:42:59.707Z,9124
2017-05-24T09:44:00.438Z,10704
2017-05-24T09:45:01.270Z,11028
2017-05-24T09:46:01.982Z,9244
2017-05-24T09:47:02.675Z,8532
2017-05-24T09:48:03.355Z,7912
2017-05-24T09:49:04.049Z,8756
2017-05-24T09:50:04.741Z,12244
2017-05-24T09:51:05.461Z,36256
2017-05-24T09:52:06.146Z,25216
2017-05-24T09:53:06.849Z,17792
2017-05-24T09:54:07.567Z,16280
2017-05-24T09:55:08.300Z,20416
2017-05-24T09:56:08.998Z,17824
2017-05-24T09:57:09.700Z,18240
2017-05-24T09:58:10.393Z,14936
2017-05-24T09:59:11.115Z,17120
2017-05-24T10:00:11.808Z,20768
2017-05-24T10:01:12.508Z,23232
2017-05-24T10:02:13.231Z,24640
2017-05-24T10:03:13.926Z,22784
2017-05-24T10:04:14.641Z,18880
2017-05-24T10:05:15.347Z,12792
2017-05-24T10:06:16.024Z,8716
2017-05-24T10:07:16.746Z,9168
2017-05-24T10:08:17.427Z,11892
2017-05-24T10:09:18.109Z,16192
2017-05-24T10:10:18.789Z,13272
2017-05-24T10:11:19.491Z,9848
2017-05-24T10:12:20.185Z,7584
2017-05-24T10:13:20.873Z,7060
2017-05-24T10:14:21.563Z,9208
2017-05-24T10:15:22.269Z,12520
2017-05-24T10:16:22.973Z,14508
2017-05-24T10:17:23.662Z,12160
2017-05-24T10:18:24.357Z,14132
2017-05-24T10:19:25.053Z,18112
2017-05-24T10:20:25.742Z,16480
2017-05-24T10:21:26.441Z,16696
2017-05-24T10:22:27.130Z,17408
2017-05-24T10:23:27.815Z,13324
2017-05-24T10:24:28.502Z,14984
2017-05-24T10:25:29.186Z,12804
2017-05-24T10:26:29.874Z,11204
2017-05-24T10:27:30.556Z,11364
2017-05-24T10:28:31.242Z,14568
2017-05-24T10:29:31.967Z,17984
2017-05-24T10:30:32.649Z,18528
2017-05-24T10:31:33.350Z,13248
2017-05-24T10:32:34.054Z,11772
2017-05-24T10:33:34.753Z,10980
2017-05-24T10:34:35.437Z,9848
2017-05-24T10:35:36.122Z,8920
2017-05-24T10:36:36.819Z,9720
2017-05-24T10:37:37.537Z,12872
2017-05-24T10:38:38.215Z,17632
2017-05-24T10:39:38.907Z,16340
2017-05-24T10:40:39.592Z,14392
2017-05-24T10:41:40.284Z,13180
2017-05-24T10:42:40.987Z,11152
2017-05-24T10:43:41.686Z,12496
2017-05-24T10:44:42.387Z,16156
2017-05-24T10:45:43.075Z,17216
2017-05-24T10:46:43.774Z,18784
2017-05-24T10:47:44.515Z,17440
2017-05-24T10:48:45.202Z,17632
2017-05-24T10:49:45.889Z,19040
2017-05-24T10:50:46.570Z,18848
2017-05-24T10:51:47.268Z,18880
2017-05-24T10:52:47.965Z,16188
2017-05-24T10:53:48.661Z,14028
2017-05-24T10:54:49.344Z,12920
2017-05-24T10:55:50.015Z,16544
2017-05-24T10:56:50.695Z,18048
2017-05-24T10:57:51.560Z,18688
2017-05-24T10:58:52.260Z,19680
2017-05-24T10:59:52.969Z,19360
2017-05-24T11:00:53.658Z,19616
2017-05-24T11:01:54.353Z,20160
2017-05-24T11:02:55.033Z,19424
2017-05-24T11:03:55.711Z,16708
2017-05-24T11:04:56.435Z,14536
2017-05-24T11:05:57.142Z,13652
2017-05-24T11:06:57.832Z,12224
2017-05-24T11:07:58.541Z,11752
2017-05-24T11:08:59.229Z,11428
2017-05-24T11:09:59.914Z,11468
2017-05-24T11:11:00.597Z,13128
2017-05-24T11:12:01.279Z,15260
2017-05-24T11:13:02.010Z,16992
2017-05-24T11:14:02.708Z,18240
2017-05-24T11:15:03.412Z,18656
2017-05-24T11:16:04.105Z,18368
2017-05-24T11:17:04.849Z,17440
2017-05-24T11:18:05.592Z,16896
2017-05-24T11:19:06.285Z,16440
2017-05-24T11:20:06.999Z,15836
2017-05-24T11:21:07.707Z,16376
2017-05-24T11:22:08.405Z,16672
2017-05-24T11:23:09.097Z,17504
2017-05-24T11:24:09.799Z,17440
2017-05-24T11:25:10.500Z,17792
2017-05-24T11:26:11.199Z,18048
2017-05-24T11:27:11.884Z,17696
2017-05-24T11:28:12.568Z,17664
2017-05-24T11:29:13.270Z,17472
2017-05-24T11:30:13.939Z,17280
2017-05-24T11:31:14.647Z,16864
2017-05-24T11:32:15.384Z,16800
2017-05-24T11:33:16.076Z,15892
2017-05-24T11:34:16.750Z,15300
2017-05-24T11:35:17.436Z,14488
2017-05-24T11:36:18.130Z,14492
2017-05-24T11:37:18.826Z,14392
2017-05-24T11:38:19.520Z,14684
2017-05-24T11:39:20.208Z,15152
2017-05-24T11:40:20.887Z,15512
2017-05-24T11:41:21.577Z,15600
2017-05-24T11:42:22.324Z,15696
2017-05-24T11:43:23.004Z,15520
2017-05-24T11:44:23.686Z,15128
2017-05-24T11:45:24.380Z,15232
2017-05-24T11:46:25.110Z,15420
2017-05-24T11:47:25.794Z,15040
2017-05-24T11:48:26.507Z,14508
2017-05-24T11:49:27.176Z,14140
2017-05-24T11:50:27.868Z,13932
2017-05-24T11:51:28.554Z,14068
2017-05-24T11:52:29.229Z,14180
2017-05-24T11:53:29.927Z,14084
2017-05-24T11:54:30.621Z,13816
2017-05-24T11:55:31.310Z,13504
2017-05-24T11:56:32.003Z,13268
2017-05-24T11:57:32.689Z,12944
2017-05-24T11:58:33.372Z,12480
2017-05-24T11:59:34.058Z,12368
2017-05-24T12:00:34.737Z,12556
2017-05-24T12:01:35.426Z,12756
2017-05-24T12:02:36.104Z,12864
2017-05-24T12:03:36.801Z,13544
2017-05-24T12:04:37.505Z,14404
2017-05-24T12:05:38.203Z,15120
2017-05-24T12:06:38.910Z,15676
2017-05-24T12:07:39.716Z,16268
2017-05-24T12:08:40.470Z,16384
2017-05-24T12:09:41.177Z,16332
2017-05-24T12:10:41.856Z,16488
2017-05-24T12:11:42.547Z,16352
2017-05-24T12:12:43.223Z,16108
2017-05-24T12:13:43.906Z,15700
2017-05-24T12:14:44.595Z,15424
2017-05-24T12:15:45.280Z,15176
2017-05-24T12:16:45.981Z,15072
2017-05-24T12:17:46.661Z,15224
2017-05-24T12:18:47.370Z,15192
2017-05-24T12:19:48.058Z,15272
2017-05-24T12:20:48.745Z,15216
2017-05-24T12:21:49.486Z,15056
2017-05-24T12:22:50.179Z,14552
2017-05-24T12:23:50.858Z,14128
2017-05-24T12:24:51.555Z,13992
2017-05-24T12:25:52.276Z,13776
2017-05-24T12:26:52.967Z,13308
2017-05-24T12:27:53.650Z,13028
2017-05-24T12:28:54.334Z,12996
2017-05-24T12:29:55.009Z,13368
2017-05-24T12:30:55.700Z,13812
2017-05-24T12:31:56.375Z,14372
2017-05-24T12:32:57.082Z,14728
2017-05-24T12:33:57.761Z,15036
2017-05-24T12:34:58.444Z,15036
2017-05-24T12:35:59.121Z,14700
2017-05-24T12:36:59.810Z,14252
2017-05-24T12:38:00.497Z,13552
2017-05-24T12:39:01.211Z,13284
2017-05-24T12:40:01.917Z,12828
2017-05-24T12:41:02.614Z,12400
2017-05-24T12:42:03.303Z,12076
2017-05-24T12:43:04.007Z,11944
2017-05-24T12:44:04.713Z,12176
2017-05-24T12:45:05.404Z,12344
2017-05-24T12:46:06.116Z,12312
2017-05-24T12:47:06.870Z,12128
2017-05-24T12:48:07.578Z,12040
2017-05-24T12:49:08.315Z,11712
2017-05-24T12:50:09.285Z,11348
2017-05-24T12:51:09.983Z,11084
2017-05-24T12:52:10.830Z,10696
2017-05-24T12:53:11.514Z,10548
2017-05-24T12:54:12.234Z,10488
2017-05-24T12:55:12.955Z,10456
2017-05-24T12:56:13.651Z,10296
2017-05-24T12:57:14.666Z,10208
2017-05-24T12:58:15.435Z,9968
2017-05-24T12:59:16.125Z,9648
2017-05-24T13:00:16.825Z,9364
2017-05-24T13:01:17.516Z,9188
2017-05-24T13:02:18.217Z,9080
2017-05-24T13:03:18.899Z,9092
2017-05-24T13:04:19.593Z,9084
2017-05-24T13:05:20.297Z,9116
2017-05-24T13:06:20.968Z,9048
2017-05-24T13:07:21.660Z,8736
2017-05-24T13:08:22.348Z,8764
2017-05-24T13:09:23.038Z,8792
2017-05-24T13:10:23.727Z,8640
2017-05-24T13:11:24.409Z,8804
2017-05-24T13:12:25.107Z,8816
2017-05-24T13:13:25.799Z,8584
2017-05-24T13:14:26.513Z,8328
2017-05-24T13:15:27.226Z,8420
2017-05-24T13:16:27.913Z,9068
2017-05-24T13:17:28.595Z,9348
2017-05-24T13:18:29.276Z,9656
2017-05-24T13:19:29.970Z,9744
2017-05-24T13:20:30.644Z,9928
2017-05-24T13:21:31.345Z,9864
2017-05-24T13:22:32.062Z,9516
2017-05-24T13:23:32.840Z,9032
2017-05-24T13:24:33.543Z,8392
2017-05-24T13:25:34.254Z,8244
2017-05-24T13:26:34.935Z,8228
2017-05-24T13:27:35.621Z,7944
2017-05-24T13:28:36.314Z,7736
2017-05-24T13:29:37.012Z,7600
2017-05-24T13:30:37.690Z,7592
2017-05-24T13:31:38.365Z,7544
2017-05-24T13:32:39.172Z,7328
2017-05-24T13:33:39.990Z,7452
2017-05-24T13:34:40.658Z,7656